Time;durP1;ratioP1;P1;durP2;ratioP2;P2;SDS_P1;SDS_P2;PMS_P1;PMS_P2;Temp;Humidity;BMP_temperature;BMP_pressure;BME280_temperature;BME280_humidity;BME280_pressure;Samples;Min_cycle;Max_cycle;Signal;HPM_P1;HPM_P2
2021/01/21 00:00:58;;;;;;;6.60;2.60;;;;;;;7.81;66.36;98077.06;5125374;28;20556;-62
2021/01/21 00:03:24;;;;;;;3.17;2.00;;;;;;;7.81;66.66;98069.06;5125197;28;20450;-62
2021/01/21 00:05:50;;;;;;;2.93;2.00;;;;;;;7.90;66.32;98073.34;5125152;28;20452;-62
2021/01/21 00:08:16;;;;;;;2.67;1.77;;;;;;;8.04;65.53;98061.13;5125329;28;20900;-62
2021/01/21 00:10:43;;;;;;;2.93;1.80;;;;;;;8.08;65.18;98049.91;5125095;28;20449;-62
2021/01/21 00:13:09;;;;;;;3.60;1.80;;;;;;;8.22;64.82;98045.63;5124621;28;20446;-62
2021/01/21 00:15:35;;;;;;;4.07;2.10;;;;;;;8.22;65.01;98050.97;5124981;28;20449;-62
2021/01/21 00:18:02;;;;;;;5.87;2.27;;;;;;;8.19;65.02;98038.00;5125074;28;20457;-62
2021/01/21 00:20:28;;;;;;;4.73;2.07;;;;;;;8.16;65.26;98042.88;5124599;28;20485;-62
2021/01/21 00:22:54;;;;;;;3.50;1.77;;;;;;;8.22;64.79;98044.81;5124235;28;20468;-62
2021/01/21 00:25:20;;;;;;;4.23;1.80;;;;;;;8.33;64.64;98040.88;5124586;28;20458;-62
2021/01/21 00:27:47;;;;;;;3.13;1.50;;;;;;;8.45;64.38;98029.66;5124867;28;20490;-61
2021/01/21 00:30:14;;;;;;;3.10;2.40;;;;;;;8.63;63.16;98033.81;5124490;28;20441;-62
2021/01/21 00:32:41;;;;;;;4.30;1.97;;;;;;;8.74;63.02;98028.03;5124617;28;20457;-62
2021/01/21 00:35:08;;;;;;;2.67;2.03;;;;;;;8.79;62.48;98030.16;5124916;28;20527;-61
2021/01/21 00:37:34;;;;;;;4.53;2.00;;;;;;;8.79;62.80;98014.16;5124725;28;20495;-62
2021/01/21 00:40:00;;;;;;;2.90;1.83;;;;;;;8.82;62.18;98005.81;5124299;28;20837;-62
2021/01/21 00:42:26;;;;;;;7.07;2.00;;;;;;;8.73;63.13;98007.75;5104753;28;20907;-62
2021/01/21 00:44:53;;;;;;;7.33;2.10;;;;;;;8.86;62.22;98009.75;5104435;28;20459;-62
2021/01/21 00:47:20;;;;;;;4.00;2.20;;;;;;;8.90;62.26;98005.69;5104416;28;20489;-62
2021/01/21 00:49:46;;;;;;;3.07;1.80;;;;;;;8.86;62.06;98007.06;5122492;28;20511;-62
2021/01/21 00:52:12;;;;;;;2.30;1.60;;;;;;;8.92;62.01;98002.84;5124201;28;20491;-62
2021/01/21 00:54:38;;;;;;;3.13;2.00;;;;;;;9.00;61.62;98003.56;5123343;28;20458;-62
2021/01/21 00:57:04;;;;;;;3.03;1.70;;;;;;;8.95;62.12;97986.47;5124938;28;20453;-62
2021/01/21 00:59:30;;;;;;;3.80;2.00;;;;;;;8.91;61.71;97975.38;5124001;28;20474;-62
2021/01/21 01:01:57;;;;;;;4.13;2.40;;;;;;;8.87;62.29;97976.78;5124795;28;20635;-61
2021/01/21 01:04:24;;;;;;;4.27;1.60;;;;;;;8.90;62.16;97967.56;5124269;28;20458;-62
2021/01/21 01:06:50;;;;;;;7.27;2.20;;;;;;;8.86;62.53;97967.09;5124171;28;20426;-62
2021/01/21 01:09:16;;;;;;;3.53;1.60;;;;;;;8.98;61.96;97965.63;5123399;28;20454;-62
2021/01/21 01:11:42;;;;;;;4.87;1.60;;;;;;;9.09;61.10;97952.81;5124754;28;20427;-62
2021/01/21 01:14:08;;;;;;;5.10;1.63;;;;;;;9.08;61.28;97961.81;5123159;28;20474;-62
2021/01/21 01:16:35;;;;;;;4.40;1.70;;;;;;;9.11;61.10;97956.13;5124453;28;20426;-62
2021/01/21 01:19:02;;;;;;;3.00;1.20;;;;;;;9.11;61.27;97954.28;5123631;28;20551;-62
2021/01/21 01:21:28;;;;;;;4.30;1.90;;;;;;;9.21;60.99;97943.31;5124006;28;20891;-62
2021/01/21 01:23:54;;;;;;;3.03;1.60;;;;;;;9.12;61.02;97939.13;5123047;28;20450;-62
2021/01/21 01:26:20;;;;;;;3.60;1.67;;;;;;;9.14;60.90;97918.44;5123481;28;20458;-62
2021/01/21 01:28:46;;;;;;;5.20;1.80;;;;;;;9.17;60.88;97928.72;5123531;28;20450;-62
2021/01/21 01:31:13;;;;;;;2.93;1.70;;;;;;;9.09;61.05;97923.50;5123132;28;20465;-62
2021/01/21 01:33:39;;;;;;;5.93;2.47;;;;;;;9.08;61.16;97916.50;5123886;28;20474;-62
2021/01/21 01:36:07;;;;;;;4.20;1.67;;;;;;;9.11;61.06;97913.47;5123801;28;20457;-62
2021/01/21 01:38:33;;;;;;;3.10;1.43;;;;;;;9.11;60.83;97916.13;5123282;28;20457;-62
2021/01/21 01:40:59;;;;;;;3.07;1.60;;;;;;;9.10;61.04;97907.31;5122904;28;20481;-62
2021/01/21 01:43:26;;;;;;;4.73;1.33;;;;;;;9.10;60.85;97904.66;5123603;28;20446;-62
2021/01/21 01:45:52;;;;;;;3.40;2.10;;;;;;;9.13;60.48;97911.44;5123540;28;20434;-62
2021/01/21 01:48:18;;;;;;;3.17;1.70;;;;;;;9.02;61.37;97870.13;5122994;28;20490;-62
2021/01/21 01:50:45;;;;;;;3.47;1.57;;;;;;;9.07;60.84;97886.38;5123778;28;20448;-62
2021/01/21 01:53:12;;;;;;;1.77;1.30;;;;;;;9.03;61.09;97890.44;5122627;28;20453;-61
2021/01/21 01:55:39;;;;;;;4.20;1.80;;;;;;;8.84;61.61;97881.22;5122497;28;20466;-62
2021/01/21 01:58:05;;;;;;;3.90;1.30;;;;;;;8.72;62.09;97875.53;5123165;28;20450;-62
2021/01/21 02:00:31;;;;;;;3.87;1.73;;;;;;;8.62;62.38;97865.16;5123035;28;20474;-62
2021/01/21 02:02:57;;;;;;;1.87;1.43;;;;;;;8.52;62.76;97858.50;5121828;28;20478;-62
2021/01/21 02:05:24;;;;;;;5.13;2.53;;;;;;;8.35;63.43;97845.38;5123018;28;20450;-62
2021/01/21 02:07:50;;;;;;;5.60;1.60;;;;;;;8.45;62.75;97842.44;5122175;28;20981;-62
2021/01/21 02:10:18;;;;;;;2.80;1.80;;;;;;;8.40;62.91;97840.31;5122444;28;20473;-62
2021/01/21 02:13:00;;;;;;;2.53;1.77;;;;;;;8.43;62.48;97823.97;5123180;28;20446;-62
2021/01/21 02:15:38;;;;;;;5.70;2.07;;;;;;;8.29;63.39;97822.94;5122416;28;20442;-62
2021/01/21 02:18:12;;;;;;;2.33;1.70;;;;;;;8.36;62.97;97833.69;5122364;28;20533;-62
2021/01/21 02:21:19;;;;;;;2.87;1.73;;;;;;;8.20;63.79;97813.44;5122678;28;21097;-62
2021/01/21 02:24:19;;;;;;;5.30;2.10;;;;;;;8.16;63.62;97804.19;5121711;28;20457;-62
2021/01/21 02:26:51;;;;;;;3.80;2.07;;;;;;;8.03;63.77;97804.81;5122322;28;20470;-62
2021/01/21 02:29:20;;;;;;;6.37;1.90;;;;;;;7.93;64.40;97782.97;5122953;28;20458;-62
2021/01/21 02:32:29;;;;;;;2.90;1.80;;;;;;;7.87;64.15;97771.25;5122346;28;20438;-62
2021/01/21 02:34:59;;;;;;;1.70;1.60;;;;;;;7.85;64.25;97783.91;5102026;28;20447;-62
2021/01/21 02:37:27;;;;;;;5.67;2.00;;;;;;;7.73;64.82;97769.44;5102487;28;20450;-62
2021/01/21 02:39:54;;;;;;;6.90;2.27;;;;;;;7.79;63.89;97762.53;5121958;28;20482;-62
2021/01/21 02:42:20;;;;;;;2.40;2.00;;;;;;;7.78;63.71;97753.75;5122594;28;20449;-63
2021/01/21 02:44:47;;;;;;;3.73;2.23;;;;;;;7.62;64.50;97746.78;5121968;28;20480;-62
2021/01/21 02:47:15;;;;;;;2.80;2.07;;;;;;;7.64;64.42;97747.41;5122259;28;20445;-62
2021/01/21 02:49:41;;;;;;;2.30;1.70;;;;;;;7.69;63.85;97747.69;5122522;28;20438;-62
2021/01/21 02:52:16;;;;;;;2.07;1.70;;;;;;;7.68;64.39;97742.56;5122252;28;20446;-61
2021/01/21 02:54:55;;;;;;;3.77;1.90;;;;;;;7.71;63.69;97736.88;5121053;28;20492;-62
2021/01/21 02:57:23;;;;;;;4.30;1.93;;;;;;;7.60;64.21;97737.31;5101920;28;20456;-62
2021/01/21 02:59:50;;;;;;;6.17;1.97;;;;;;;7.59;64.00;97730.38;5109533;28;20519;-62
2021/01/21 03:02:18;;;;;;;7.37;2.07;;;;;;;7.59;63.74;97720.56;5122314;28;20450;-62
2021/01/21 03:04:46;;;;;;;3.53;2.23;;;;;;;7.62;63.81;97709.56;5121666;28;20454;-62
2021/01/21 03:07:15;;;;;;;2.87;1.63;;;;;;;7.61;63.87;97709.72;5122077;28;20454;-60
2021/01/21 03:09:43;;;;;;;3.33;2.10;;;;;;;7.51;64.13;97710.81;5121893;28;20561;-61
2021/01/21 03:12:19;;;;;;;3.57;2.30;;;;;;;7.40;64.37;97727.25;5122645;28;20469;-61
2021/01/21 03:14:46;;;;;;;2.60;1.70;;;;;;;7.37;64.59;97716.97;5121478;28;20453;-61
2021/01/21 03:17:12;;;;;;;3.43;1.93;;;;;;;7.45;64.08;97697.47;5122190;28;20504;-60
2021/01/21 03:19:39;;;;;;;2.80;2.07;;;;;;;7.46;64.38;97699.91;5121880;28;20502;-61
2021/01/21 03:22:05;;;;;;;3.90;1.93;;;;;;;7.47;64.28;97680.31;5121866;28;20462;-61
2021/01/21 03:24:32;;;;;;;4.00;2.00;;;;;;;7.40;64.20;97679.38;5121130;28;20454;-61
2021/01/21 03:26:58;;;;;;;5.80;3.03;;;;;;;7.41;64.44;97677.56;5121537;28;20454;-61
2021/01/21 03:29:26;;;;;;;4.00;1.70;;;;;;;7.40;64.44;97678.56;5121731;28;20434;-61
2021/01/21 03:31:52;;;;;;;3.60;1.87;;;;;;;7.50;63.79;97681.78;5121790;28;20453;-61
2021/01/21 03:34:18;;;;;;;4.50;2.10;;;;;;;7.44;64.26;97674.53;5121403;28;20917;-61
2021/01/21 03:36:44;;;;;;;2.90;1.77;;;;;;;7.48;64.45;97679.31;5121946;28;20467;-61
2021/01/21 03:39:11;;;;;;;6.00;2.40;;;;;;;7.56;64.18;97641.16;5120937;28;20782;-61
2021/01/21 03:41:38;;;;;;;2.93;1.97;;;;;;;7.54;64.05;97683.88;5121685;28;20524;-61
2021/01/21 03:44:05;;;;;;;5.73;2.47;;;;;;;7.51;64.20;97670.94;5121493;28;20476;-61
2021/01/21 03:46:31;;;;;;;4.63;2.30;;;;;;;7.58;64.00;97668.38;5121506;28;20449;-61
2021/01/21 03:48:57;;;;;;;2.50;1.70;;;;;;;7.77;63.43;97669.63;5121772;28;20478;-61
2021/01/21 03:51:23;;;;;;;4.13;2.00;;;;;;;7.78;63.33;97671.28;5121752;28;20451;-61
2021/01/21 03:53:49;;;;;;;5.40;2.27;;;;;;;7.71;63.64;97671.19;5120803;28;20449;-61
2021/01/21 03:56:15;;;;;;;5.63;1.70;;;;;;;7.83;63.38;97674.22;5120592;28;20479;-61
2021/01/21 03:58:42;;;;;;;4.13;1.90;;;;;;;8.12;62.39;97651.19;5121623;28;20456;-61
2021/01/21 04:01:08;;;;;;;4.73;1.77;;;;;;;8.09;62.53;97662.22;5120959;28;20513;-61
2021/01/21 04:03:35;;;;;;;2.70;1.57;;;;;;;8.10;62.73;97663.88;5121073;28;20956;-61
2021/01/21 04:06:01;;;;;;;3.50;1.67;;;;;;;8.32;61.72;97647.94;5121715;28;20422;-61
2021/01/21 04:08:27;;;;;;;2.53;1.47;;;;;;;8.38;61.47;97633.84;5120989;28;20818;-60
2021/01/21 04:10:53;;;;;;;4.00;1.50;;;;;;;8.47;61.30;97635.38;5121074;28;20457;-61
2021/01/21 04:13:20;;;;;;;6.73;1.63;;;;;;;8.57;61.21;97646.53;5121431;28;20454;-60
2021/01/21 04:15:47;;;;;;;5.00;1.33;;;;;;;8.63;60.76;97629.78;5121751;28;20446;-61
2021/01/21 04:18:14;;;;;;;2.80;1.10;;;;;;;8.55;61.15;97629.09;5121224;28;20461;-61
2021/01/21 04:20:41;;;;;;;3.23;1.70;;;;;;;8.35;62.28;97629.72;5120965;28;20528;-61
2021/01/21 04:23:07;;;;;;;2.70;1.40;;;;;;;8.37;62.08;97613.56;5120526;28;20976;-61
2021/01/21 04:25:33;;;;;;;4.53;1.83;;;;;;;8.36;61.93;97614.56;5120951;28;20468;-61
2021/01/21 04:27:59;;;;;;;3.33;1.47;;;;;;;8.57;61.29;97619.88;5124709;28;20481;-61
2021/01/21 04:30:26;;;;;;;6.03;1.73;;;;;;;8.54;61.43;97622.97;5125045;28;20442;-61
2021/01/21 04:32:53;;;;;;;4.17;1.87;;;;;;;8.64;61.12;97611.97;5124777;28;20517;-61
2021/01/21 04:35:19;;;;;;;3.53;1.30;;;;;;;8.51;61.45;97604.69;5125380;28;20430;-61
2021/01/21 04:37:46;;;;;;;3.17;1.53;;;;;;;8.67;61.30;97601.75;5124362;28;20473;-61
2021/01/21 04:40:12;;;;;;;4.97;1.57;;;;;;;8.98;59.85;97597.03;5124263;28;20489;-61
2021/01/21 04:42:39;;;;;;;2.83;1.50;;;;;;;9.02;60.42;97588.44;5124507;28;20446;-61
2021/01/21 04:45:06;;;;;;;2.30;1.10;;;;;;;9.18;59.36;97602.47;5124850;28;20821;-61
2021/01/21 04:47:32;;;;;;;2.87;1.50;;;;;;;9.43;58.66;97584.97;5124598;28;20457;-61
2021/01/21 04:50:00;;;;;;;1.60;1.10;;;;;;;9.69;58.89;97582.59;5124533;28;20451;-61
2021/01/21 04:52:27;;;;;;;4.80;1.10;;;;;;;9.48;59.94;97578.19;5124036;28;20624;-61
2021/01/21 04:54:58;;;;;;;2.77;1.20;;;;;;;9.69;59.05;97572.75;5123845;28;20446;-61
2021/01/21 04:57:31;;;;;;;3.63;1.20;;;;;;;9.73;59.07;97570.50;5124119;28;20480;-61
2021/01/21 04:59:58;;;;;;;2.77;1.50;;;;;;;9.87;57.78;97580.16;5124159;28;20523;-61
2021/01/21 05:02:25;;;;;;;1.73;1.30;;;;;;;9.90;57.80;97563.75;5124436;28;20442;-61
2021/01/21 05:04:51;;;;;;;1.97;1.17;;;;;;;9.93;57.93;97565.19;5124249;28;20476;-61
2021/01/21 05:07:18;;;;;;;3.50;1.20;;;;;;;9.98;57.48;97565.41;5124066;28;20430;-61
2021/01/21 05:09:45;;;;;;;5.30;1.50;;;;;;;10.06;57.06;97572.41;5123202;28;20478;-61
2021/01/21 05:12:11;;;;;;;4.30;1.33;;;;;;;10.03;57.11;97546.94;5122711;28;20434;-61
2021/01/21 05:14:37;;;;;;;2.60;1.20;;;;;;;10.12;56.97;97576.94;5113953;28;20461;-60
2021/01/21 05:17:04;;;;;;;2.10;1.13;;;;;;;10.16;56.70;97567.50;5121872;28;20489;-60
2021/01/21 05:19:32;;;;;;;1.67;1.20;;;;;;;10.17;56.60;97561.13;5121674;28;20528;-61
2021/01/21 05:22:00;;;;;;;1.50;0.90;;;;;;;10.12;56.76;97543.06;5123723;28;20435;-61
2021/01/21 05:24:27;;;;;;;1.90;1.50;;;;;;;10.13;57.03;97541.22;5121627;28;21359;-61
2021/01/21 05:26:55;;;;;;;2.00;1.50;;;;;;;10.00;57.28;97547.38;5116968;28;20809;-61
2021/01/21 05:29:21;;;;;;;2.60;1.20;;;;;;;10.02;57.41;97550.66;5111823;28;20469;-61
2021/01/21 05:31:48;;;;;;;3.10;1.57;;;;;;;10.24;57.03;97555.78;5122839;28;20487;-61
2021/01/21 05:34:17;;;;;;;5.87;1.13;;;;;;;10.29;56.84;97543.47;5121142;28;20454;-61
2021/01/21 05:36:45;;;;;;;1.60;1.00;;;;;;;10.21;56.83;97553.53;5121117;28;20489;-61
2021/01/21 05:39:11;;;;;;;3.50;1.40;;;;;;;10.22;57.17;97537.28;5115167;28;20480;-61
2021/01/21 05:41:39;;;;;;;2.57;1.50;;;;;;;10.25;56.88;97531.56;5122335;28;20458;-61
2021/01/21 05:44:06;;;;;;;3.10;1.30;;;;;;;10.20;57.52;97515.31;5103828;28;20469;-61
2021/01/21 05:46:33;;;;;;;1.83;1.47;;;;;;;10.21;57.50;97538.34;5121813;28;20536;-61
2021/01/21 05:49:00;;;;;;;2.20;1.10;;;;;;;10.37;56.54;97526.44;5118964;28;20451;-61
2021/01/21 05:51:26;;;;;;;1.60;1.10;;;;;;;10.25;57.04;97523.53;5108429;28;20431;-61
2021/01/21 05:53:53;;;;;;;2.13;1.20;;;;;;;10.26;57.48;97514.53;5100661;28;20447;-60
2021/01/21 05:56:19;;;;;;;1.83;0.97;;;;;;;10.25;57.22;97536.09;5121712;28;20503;-61
2021/01/21 05:58:46;;;;;;;3.53;1.27;;;;;;;10.22;58.03;97531.97;5122202;28;20470;-61
2021/01/21 06:01:14;;;;;;;1.93;1.30;;;;;;;10.26;57.97;97524.34;5120889;28;20482;-61
2021/01/21 06:03:41;;;;;;;4.37;1.00;;;;;;;10.23;58.40;97522.94;5105768;28;20514;-61
2021/01/21 06:06:08;;;;;;;3.40;1.40;;;;;;;10.22;59.08;97525.81;5118710;28;20446;-60
2021/01/21 06:08:38;;;;;;;3.20;1.43;;;;;;;10.02;60.67;97499.13;5100642;28;20451;-61
2021/01/21 06:11:05;;;;;;;1.83;1.00;;;;;;;10.04;60.36;97508.56;5100976;28;20450;-61
2021/01/21 06:13:34;;;;;;;2.07;1.10;;;;;;;9.97;60.85;97507.72;5115809;28;20458;-61
2021/01/21 06:16:02;;;;;;;1.63;0.83;;;;;;;9.95;60.89;97507.13;5117533;28;20744;-60
2021/01/21 06:18:28;;;;;;;3.33;0.97;;;;;;;10.02;60.25;97523.97;5101519;28;20483;-61
2021/01/21 06:20:55;;;;;;;2.23;1.20;;;;;;;10.08;60.01;97496.44;5100889;28;20516;-62
2021/01/21 06:23:24;;;;;;;2.10;1.10;;;;;;;10.09;60.03;97519.44;5112562;28;20848;-61
2021/01/21 06:25:51;;;;;;;2.03;0.80;;;;;;;10.24;59.16;97505.91;5120470;28;20849;-61
2021/01/21 06:28:19;;;;;;;1.60;1.10;;;;;;;10.21;59.01;97500.13;5117009;28;20482;-61
2021/01/21 06:30:45;;;;;;;1.93;1.00;;;;;;;10.27;59.09;97510.00;5107814;28;21089;-62
2021/01/21 06:33:16;;;;;;;2.43;1.00;;;;;;;10.33;58.69;97531.38;5112437;28;20457;-61
2021/01/21 06:35:48;;;;;;;3.30;1.10;;;;;;;10.38;58.46;97511.25;5105592;28;20459;-62
2021/01/21 06:38:16;;;;;;;7.60;1.50;;;;;;;10.34;58.78;97505.50;5116825;28;20451;-61
2021/01/21 06:40:48;;;;;;;6.50;1.37;;;;;;;10.27;59.49;97529.50;5100602;28;20518;-61
2021/01/21 06:43:15;;;;;;;2.80;1.70;;;;;;;10.30;59.40;97523.75;5116922;28;20465;-61
2021/01/21 06:45:41;;;;;;;3.17;1.30;;;;;;;10.20;61.82;97568.72;5119817;28;20434;-61
2021/01/21 06:48:09;;;;;;;3.03;0.97;;;;;;;10.10;63.20;97622.53;5121225;28;20959;-61
2021/01/21 06:50:37;;;;;;;1.93;1.00;;;;;;;9.88;66.21;97741.13;5118135;28;20473;-61
2021/01/21 06:53:05;;;;;;;1.43;0.70;;;;;;;6.73;80.61;97787.25;5099335;28;20549;-62
2021/01/21 06:55:32;;;;;;;3.17;0.90;;;;;;;6.11;84.45;97787.28;5110206;28;20492;-62
2021/01/21 06:57:58;;;;;;;2.53;0.90;;;;;;;5.99;85.01;97798.28;5120934;28;20492;-63
2021/01/21 07:00:45;;;;;;;0.60;0.60;;;;;;;5.81;85.41;97858.63;5113224;28;20506;-63
2021/01/21 07:03:28;;;;;;;1.27;0.80;;;;;;;5.66;83.72;97838.13;5106195;28;20439;-63
2021/01/21 07:05:59;;;;;;;2.80;0.60;;;;;;;5.56;83.58;97834.81;5110501;28;20430;-62
2021/01/21 07:08:25;;;;;;;0.93;0.80;;;;;;;5.43;82.27;97835.34;5111791;28;20483;-63
2021/01/21 07:10:51;;;;;;;0.80;0.70;;;;;;;5.45;80.28;97859.84;5110640;28;20434;-62
2021/01/21 07:13:19;;;;;;;1.23;0.70;;;;;;;5.37;80.12;97861.69;5115526;28;20466;-62
2021/01/21 07:15:47;;;;;;;0.90;0.60;;;;;;;5.32;79.90;97850.75;5119832;28;20887;-63
2021/01/21 07:18:20;;;;;;;1.33;0.50;;;;;;;5.36;79.90;97878.56;5115472;28;20454;-61
2021/01/21 07:21:16;;;;;;;1.07;0.60;;;;;;;5.38;78.56;97864.16;5102739;28;20487;-61
2021/01/21 07:23:45;;;;;;;0.67;0.40;;;;;;;5.34;77.52;97872.59;5102394;28;20493;-63
2021/01/21 07:26:39;;;;;;;1.10;0.50;;;;;;;5.26;78.33;97887.50;5115086;28;20451;-61
2021/01/21 07:29:15;;;;;;;1.97;0.50;;;;;;;5.28;78.47;97904.06;5112855;28;20455;-62
2021/01/21 07:32:07;;;;;;;2.53;0.63;;;;;;;5.35;77.31;97885.69;5116923;28;20438;-61
2021/01/21 07:34:46;;;;;;;0.80;0.60;;;;;;;5.37;77.34;97883.69;5113033;28;20564;-61
2021/01/21 07:37:16;;;;;;;0.47;0.40;;;;;;;5.39;75.50;97891.47;5096711;28;20462;-62
2021/01/21 07:39:50;;;;;;;1.57;0.70;;;;;;;5.39;76.44;97872.94;5115459;28;20486;-61
2021/01/21 07:42:16;;;;;;;1.83;0.70;;;;;;;5.41;75.09;97868.28;5113215;28;20447;-61
2021/01/21 07:45:01;;;;;;;1.60;0.60;;;;;;;5.41;74.35;97876.25;5114308;28;20446;-61
2021/01/21 07:47:29;;;;;;;2.33;1.00;;;;;;;5.41;74.01;97877.06;5098888;28;20453;-63
2021/01/21 07:50:34;;;;;;;0.93;0.80;;;;;;;5.43;73.65;97935.19;5110268;28;20439;-61
2021/01/21 07:53:17;;;;;;;1.40;0.63;;;;;;;5.42;73.27;97937.03;5101776;28;20449;-62
2021/01/21 07:55:44;;;;;;;1.33;0.83;;;;;;;5.33;73.89;97914.19;5107327;28;20545;-63
2021/01/21 07:58:27;;;;;;;1.00;0.70;;;;;;;5.30;73.75;97930.41;5111347;28;20450;-61
2021/01/21 08:00:55;;;;;;;0.90;0.77;;;;;;;5.30;73.21;97927.75;5111973;28;20890;-63
2021/01/21 08:03:32;;;;;;;1.57;0.67;;;;;;;5.32;73.29;97919.63;5109290;28;20458;-62
2021/01/21 08:06:12;;;;;;;0.97;0.60;;;;;;;5.33;72.63;97918.63;5116078;28;20473;-62
2021/01/21 08:08:40;;;;;;;1.53;0.77;;;;;;;5.37;72.51;97914.66;5106301;28;20993;-62
2021/01/21 08:11:08;;;;;;;2.43;0.70;;;;;;;5.35;72.81;97940.50;5122327;28;20452;-62
2021/01/21 08:13:35;;;;;;;0.80;0.67;;;;;;;5.38;71.71;97962.22;5117009;28;20482;-60
2021/01/21 08:16:02;;;;;;;1.07;0.70;;;;;;;5.35;72.80;97951.94;5122654;28;20442;-65
2021/01/21 08:18:28;;;;;;;3.57;0.70;;;;;;;5.42;72.36;97944.97;5107538;28;20463;-63
2021/01/21 08:20:55;;;;;;;1.33;0.60;;;;;;;5.44;71.34;97939.50;5101156;28;20505;-63
2021/01/21 08:23:21;;;;;;;4.40;1.00;;;;;;;5.41;72.69;97951.25;5103053;28;20451;-63
2021/01/21 14:57:42;;;;;;;2.60;1.50;;;;;;;6.27;65.97;98057.88;5156174;27;20862;-63
2021/01/21 15:00:10;;;;;;;3.63;1.40;;;;;;;6.32;65.58;98067.97;5158266;27;20448;-65
2021/01/21 15:02:36;;;;;;;3.27;1.63;;;;;;;6.39;65.08;98056.53;5150156;27;20509;-64
2021/01/21 15:05:02;;;;;;;11.20;1.70;;;;;;;6.44;65.13;98076.41;5152966;27;20444;-64
2021/01/21 15:07:29;;;;;;;4.80;1.30;;;;;;;6.39;65.66;98042.44;5146817;27;20440;-64
2021/01/21 15:09:55;;;;;;;3.90;1.00;;;;;;;6.35;65.64;98060.53;5157071;27;20470;-64
2021/01/21 15:12:21;;;;;;;3.97;1.50;;;;;;;6.37;65.29;98061.19;5157228;27;20912;-65
2021/01/21 15:14:48;;;;;;;2.43;1.50;;;;;;;6.37;65.73;98058.53;5156558;27;20480;-65
2021/01/21 15:17:15;;;;;;;6.63;2.07;;;;;;;6.36;65.71;98051.56;5158192;27;20483;-65
2021/01/21 15:19:42;;;;;;;3.70;1.40;;;;;;;6.36;65.71;98064.00;5144433;27;20477;-64
2021/01/21 15:22:08;;;;;;;0.90;0.80;;;;;;;6.38;65.47;98060.16;5158057;27;20488;-65
2021/01/21 15:24:37;;;;;;;3.03;1.47;;;;;;;6.38;65.66;98062.00;5157043;27;20482;-65
2021/01/21 15:27:04;;;;;;;3.10;1.00;;;;;;;6.37;65.40;98063.84;5157101;27;20863;-65
2021/01/21 15:29:31;;;;;;;3.57;1.57;;;;;;;6.36;65.47;98056.84;5157798;27;20452;-65
2021/01/21 15:31:58;;;;;;;1.33;0.97;;;;;;;6.34;65.41;98061.50;5158261;27;20455;-65
2021/01/21 15:34:24;;;;;;;1.10;1.00;;;;;;;6.28;66.11;98066.66;5157752;27;20921;-65
2021/01/21 15:36:50;;;;;;;2.40;1.33;;;;;;;6.27;65.99;98055.22;5157961;27;20796;-64
2021/01/21 15:39:16;;;;;;;3.10;1.93;;;;;;;6.26;65.92;98055.38;5156953;27;20457;-64
2021/01/21 15:41:43;;;;;;;4.93;1.47;;;;;;;6.18;66.03;98051.75;5156134;27;20444;-64
2021/01/21 15:44:09;;;;;;;4.73;1.20;;;;;;;6.25;65.88;98054.56;5157199;27;20462;-64
2021/01/21 15:46:38;;;;;;;2.00;1.23;;;;;;;6.30;65.79;98059.34;5157007;27;20437;-64
2021/01/21 15:49:09;;;;;;;4.30;1.50;;;;;;;6.18;66.60;98050.91;5156971;27;20474;-64
2021/01/21 15:51:36;;;;;;;3.87;1.20;;;;;;;6.12;66.27;98057.69;5157365;27;20458;-64
2021/01/21 15:54:02;;;;;;;2.23;1.10;;;;;;;6.11;66.17;98058.72;5156539;27;20440;-64
2021/01/21 15:56:29;;;;;;;2.00;1.30;;;;;;;6.10;66.39;98065.00;5154894;27;20488;-64
2021/01/21 15:58:55;;;;;;;2.30;1.30;;;;;;;6.11;66.43;98057.88;5157070;27;20440;-64
2021/01/21 16:01:21;;;;;;;6.60;1.70;;;;;;;6.06;66.18;98053.06;5148930;27;20440;-65
2021/01/21 16:03:47;;;;;;;5.40;1.37;;;;;;;6.20;65.67;98052.41;5152247;27;20758;-64
2021/01/21 16:06:14;;;;;;;3.27;1.40;;;;;;;6.15;65.80;98044.09;5155556;27;20481;-65
2021/01/21 16:08:43;;;;;;;3.73;1.47;;;;;;;6.07;66.17;98056.56;5144361;27;20509;-64
2021/01/21 16:11:10;;;;;;;1.63;1.20;;;;;;;6.05;66.31;98054.06;5140774;27;20496;-63
2021/01/21 16:13:36;;;;;;;1.13;0.87;;;;;;;5.98;66.73;98053.88;5133394;27;20436;-65
2021/01/21 16:16:02;;;;;;;1.57;1.27;;;;;;;6.09;66.03;98054.56;5142081;27;20865;-64
2021/01/21 16:18:28;;;;;;;4.00;1.50;;;;;;;6.06;65.90;98054.88;5142148;27;20452;-63
2021/01/21 16:20:54;;;;;;;4.73;1.73;;;;;;;5.98;66.46;98061.84;5142780;27;20531;-64
2021/01/21 16:23:23;;;;;;;3.33;1.07;;;;;;;6.00;65.88;98059.84;5141803;27;20454;-64
2021/01/21 16:25:52;;;;;;;3.93;1.73;;;;;;;6.06;65.97;98060.19;5131106;27;20457;-64
2021/01/21 16:28:18;;;;;;;2.93;1.60;;;;;;;6.02;66.11;98057.03;5142118;27;20449;-65
2021/01/21 16:30:46;;;;;;;2.17;1.80;;;;;;;5.95;66.22;98056.00;5142097;27;20452;-64
2021/01/21 16:33:12;;;;;;;3.20;2.10;;;;;;;6.04;65.75;98055.03;5141858;27;20455;-63
2021/01/21 16:35:38;;;;;;;4.80;3.37;;;;;;;5.98;65.90;98053.06;5141590;27;20556;-64
2021/01/21 16:38:04;;;;;;;4.43;1.93;;;;;;;5.96;65.99;98055.06;5142839;27;20438;-64
2021/01/21 16:40:31;;;;;;;6.50;1.80;;;;;;;5.86;66.57;98055.19;5140929;27;20461;-64
2021/01/21 16:43:00;;;;;;;6.50;1.73;;;;;;;5.93;66.17;98042.09;5141272;27;20464;-64
2021/01/21 16:45:27;;;;;;;1.80;1.27;;;;;;;6.02;65.81;98051.72;5142149;27;20453;-63
2021/01/21 16:47:53;;;;;;;9.80;1.50;;;;;;;6.01;65.47;98042.13;5140530;27;20449;-63
2021/01/21 16:50:19;;;;;;;4.20;1.50;;;;;;;5.95;65.77;98043.56;5143170;27;20453;-63
2021/01/21 16:52:45;;;;;;;8.60;1.73;;;;;;;5.99;65.88;98046.78;5129296;27;20461;-63
2021/01/21 16:55:12;;;;;;;4.50;1.30;;;;;;;5.93;65.84;98045.56;5140673;27;20454;-63
2021/01/21 16:57:39;;;;;;;2.03;1.53;;;;;;;5.91;66.02;98050.22;5138229;27;20511;-64
2021/01/21 17:00:07;;;;;;;3.00;1.27;;;;;;;5.87;66.24;98037.44;5138384;27;20437;-64
2021/01/21 17:02:33;;;;;;;7.07;1.60;;;;;;;5.94;65.58;98041.94;5137113;27;20972;-63
2021/01/21 17:05:00;;;;;;;2.60;1.50;;;;;;;5.94;65.60;98038.47;5139525;27;20959;-63
2021/01/21 17:07:26;;;;;;;2.13;1.40;;;;;;;5.95;65.69;98024.19;5139648;27;20872;-63
2021/01/21 17:09:52;;;;;;;3.93;1.63;;;;;;;5.97;65.35;98011.63;5138693;27;20441;-64
2021/01/21 17:12:19;;;;;;;4.90;2.50;;;;;;;5.89;65.74;98014.25;5139528;27;20458;-64
2021/01/21 17:14:46;;;;;;;3.70;1.57;;;;;;;5.97;65.31;98017.78;5139479;27;20456;-64
2021/01/21 17:17:12;;;;;;;2.00;1.37;;;;;;;5.94;65.57;98012.75;5138284;27;20491;-63
2021/01/21 17:19:38;;;;;;;2.20;1.37;;;;;;;5.98;65.40;98014.09;5138582;27;20441;-63
2021/01/21 17:22:05;;;;;;;2.50;1.50;;;;;;;6.02;65.28;98011.94;5139718;27;20474;-63
2021/01/21 17:24:31;;;;;;;3.70;1.40;;;;;;;6.09;65.04;98012.94;5138680;27;20453;-63
2021/01/21 17:26:58;;;;;;;3.80;1.40;;;;;;;6.13;64.68;98002.84;5138709;27;20453;-63
2021/01/21 17:29:24;;;;;;;2.73;1.40;;;;;;;6.11;64.70;97995.03;5139179;27;20691;-63
2021/01/21 17:31:52;;;;;;;3.33;1.90;;;;;;;6.11;64.99;98004.81;5135193;27;20468;-63
2021/01/21 17:34:18;;;;;;;2.30;1.47;;;;;;;6.11;65.35;98007.47;5141025;27;20453;-63
2021/01/21 17:36:45;;;;;;;6.60;1.50;;;;;;;6.15;64.85;98008.81;5141831;27;20484;-64
2021/01/21 17:39:11;;;;;;;4.20;1.77;;;;;;;6.08;64.92;98010.47;5141582;27;20958;-64
2021/01/21 17:41:37;;;;;;;1.80;1.20;;;;;;;6.15;65.01;98006.97;5141437;27;20456;-64
2021/01/21 17:44:05;;;;;;;6.47;1.50;;;;;;;6.18;64.75;97996.03;5141132;27;21035;-64
2021/01/21 17:46:31;;;;;;;4.47;1.40;;;;;;;6.16;64.80;97995.38;5131762;27;20459;-64
2021/01/21 17:48:59;;;;;;;2.10;1.27;;;;;;;6.21;64.93;97992.19;5141022;27;20441;-64
2021/01/21 17:51:25;;;;;;;3.93;1.77;;;;;;;6.16;65.24;97991.88;5141417;27;20445;-64
2021/01/21 17:53:52;;;;;;;8.10;1.77;;;;;;;6.15;65.19;98000.84;5141568;27;20445;-64
2021/01/21 17:56:18;;;;;;;4.10;1.40;;;;;;;6.14;65.31;98000.00;5139229;27;20507;-64
2021/01/21 17:58:45;;;;;;;4.37;1.60;;;;;;;6.20;65.04;97994.03;5141925;27;20488;-64
2021/01/21 18:01:11;;;;;;;4.20;1.90;;;;;;;6.16;65.29;97992.72;5139539;27;20449;-62
2021/01/21 18:03:41;;;;;;;2.70;1.20;;;;;;;6.08;65.99;97997.22;5134188;27;20486;-65
2021/01/21 18:06:08;;;;;;;2.50;1.20;;;;;;;6.10;65.90;97995.22;5141047;27;20449;-65
2021/01/21 18:08:35;;;;;;;1.83;1.20;;;;;;;6.11;66.31;97986.25;5134710;27;20464;-64
2021/01/21 18:11:04;;;;;;;10.17;1.83;;;;;;;6.07;66.30;97984.94;5138910;27;20472;-65
2021/01/21 18:13:31;;;;;;;2.70;1.37;;;;;;;6.10;66.17;97974.00;5141155;27;20453;-65
2021/01/21 18:15:57;;;;;;;2.33;1.70;;;;;;;6.07;66.64;97969.00;5140534;27;20500;-64
2021/01/21 18:18:24;;;;;;;2.60;1.67;;;;;;;6.01;67.19;97959.91;5139517;27;20499;-65